Elk River, Minnesota
Current Conditions -  °F | °C
As of 11:34 AM on Friday 31 Oct 2014 (Local Time) from KPNM Reporting Station
Clear Clear  
Wind Chill: -1°   Ceiling: Unl
Heat Index:   Visibility: 10mi
Dew Point: -8°   Wind: 6mph
Humidity: 48%   Direction: 30°NNE
Pressure: 30.58"   Gusts: 9mph
Location:  45.31°N, 93.57°W
Report Text: KPNM 311634Z AUTO 03005G08KT 10SM CLR 02/M08 A3058 RMK AO2
Loading
Personal Weather Stations






























Interactive Weather Map
Tropical Storm Tracking
New forecast layout! Learn more

10-Day Weather Forecast

Advertisements
Track Severe Weather on mobile